Overview Statistics Trail Chart Weather Telemetry Raw packets
 

This is the latest recevied weather packets stored in our database for station/object EA3AGY-13. If no packets are shown the sender has not sent any weather packets the latest 10 day(s).

<< 2 3 4 5 6 7 8 >>
Time Temp. Humidity Pressure Rain* Wind** Luminosity Snow
1788436286 25° C 29% 1024.9 hPa 0 mm - - -
1788433877 24.44° C 31% 1025 hPa 0 mm - - -
1788430865 23.33° C 35% 1025.1 hPa 0 mm - - -
1788428458 22.22° C 37% 1025.2 hPa 0 mm - - -
1788427854 22.22° C 37% 1025.2 hPa 0 mm - - -
1788427251 21.67° C 37% 1025 hPa 0 mm - - -
1788425445 21.11° C 39% 1024.9 hPa 0 mm - - -
1788424841 20.56° C 39% 1024.8 hPa 0 mm - - -
1788422432 20° C 42% 1024.7 hPa 0 mm - - -
1788420624 19.44° C 43% 1024.7 hPa 0 mm - - -
1788420022 19.44° C 43% 1024.7 hPa 0 mm - - -
1788419420 19.44° C 42% 1024.6 hPa 0 mm - - -
1788418216 19.44° C 40% 1024.7 hPa 0 mm - - -
1788417614 18.89° C 40% 1024.7 hPa 0 mm - - -
1788415805 17.78° C 44% 1024.6 hPa 0 mm - - -
1788414601 16.11° C 50% 1024.5 hPa 0 mm - - -
1788410384 14.44° C 50% 1024.3 hPa 0 mm - - -
1788408577 14.44° C 50% 1024.3 hPa 0 mm - - -
1788407373 14.44° C 49% 1024.5 hPa 0 mm - - -
1788406168 14.44° C 49% 1024.6 hPa 0 mm - - -
1788403760 14.44° C 49% 1024.8 hPa 0 mm - - -
1788394120 15.56° C 49% 1024.9 hPa 0 mm - - -
1788392917 15.56° C 50% 1025 hPa 0 mm - - -
1788390507 15° C 48% 1024.9 hPa 0 mm - - -
1788389302 15° C 46% 1024.6 hPa 0 mm - - -

* Rain since midnight (hover to see other rain measurements)
** Current wind speed in m/s (hover to see current wind gust speed)